Time;durP1;ratioP1;P1;durP2;ratioP2;P2;SDS_P1;SDS_P2;PMS_P1;PMS_P2;Temp;Humidity;BMP_temperature;BMP_pressure;BME280_temperature;BME280_humidity;BME280_pressure;Samples;Min_cycle;Max_cycle;Signal;HPM_P1;HPM_P2
2023/03/14 00:01:15;;;;;;;8.40;1.75;;;;;;;14.39;100.00;98685.91;4985707;28;20060;-77
2023/03/14 00:03:41;;;;;;;9.63;1.58;;;;;;;14.29;100.00;98670.50;4983407;28;20046;-76
2023/03/14 00:06:09;;;;;;;9.73;1.70;;;;;;;14.44;100.00;98661.00;4985292;28;20149;-77
2023/03/14 00:08:36;;;;;;;5.72;1.35;;;;;;;14.38;100.00;98684.38;4985856;28;20054;-78
2023/03/14 00:11:12;;;;;;;3.83;1.35;;;;;;;14.41;100.00;98673.06;4981763;28;20046;-77
2023/03/14 00:13:38;;;;;;;8.73;1.98;;;;;;;14.16;100.00;98665.13;4985164;28;20059;-77
2023/03/14 00:16:10;;;;;;;4.88;1.65;;;;;;;14.40;100.00;98656.84;4981538;28;20054;-77
2023/03/14 00:18:37;;;;;;;4.18;1.40;;;;;;;14.36;100.00;98632.00;4990272;28;20152;-77
2023/03/14 00:21:06;;;;;;;4.68;1.30;;;;;;;14.21;100.00;98628.31;4981679;28;20065;-77
2023/03/14 00:23:34;;;;;;;8.30;1.92;;;;;;;14.21;100.00;98619.97;4983673;28;20093;-72
2023/03/14 00:26:09;;;;;;;11.63;2.13;;;;;;;14.43;100.00;98606.59;4984253;28;20057;-77
2023/03/14 00:28:36;;;;;;;;;;;;;;;14.39;100.00;98599.69;4983595;28;20524;-76
2023/03/14 00:31:04;;;;;;;4.00;1.45;;;;;;;14.24;100.00;98582.91;4973120;28;19925;-77
2023/03/14 00:33:31;;;;;;;8.18;1.23;;;;;;;14.26;100.00;98583.22;4955173;28;69737;-79
2023/03/14 00:36:04;;;;;;;3.25;0.88;;;;;;;14.29;100.00;98600.97;5005033;28;20064;-77
2023/03/14 00:38:32;;;;;;;5.60;1.25;;;;;;;14.23;100.00;98617.53;5005841;28;20415;-79
2023/03/14 00:40:59;;;;;;;13.07;3.47;;;;;;;14.06;100.00;98623.91;5005179;28;20053;-77
2023/03/14 00:43:25;;;;;;;7.15;1.70;;;;;;;14.34;100.00;98630.94;5004303;28;20056;-73
2023/03/14 00:45:52;;;;;;;12.52;2.78;;;;;;;14.15;100.00;98638.56;4997612;28;20062;-77
2023/03/14 00:48:20;;;;;;;14.32;2.45;;;;;;;14.25;100.00;98654.00;4997597;28;20061;-76
2023/03/14 00:50:47;;;;;;;8.20;1.95;;;;;;;14.34;100.00;98653.94;4999673;28;20056;-75
2023/03/14 00:53:14;;;;;;;3.05;1.38;;;;;;;14.40;100.00;98643.72;5002740;28;20877;-77
2023/03/14 00:55:45;;;;;;;14.13;2.95;;;;;;;14.29;100.00;98639.91;5004034;28;20053;-74
2023/03/14 00:58:13;;;;;;;11.13;2.42;;;;;;;14.35;100.00;98647.13;5004541;28;20058;-76
2023/03/14 01:00:41;;;;;;;17.58;3.55;;;;;;;14.10;100.00;98633.63;5001013;28;20060;-76
2023/03/14 01:03:08;;;;;;;8.82;2.83;;;;;;;13.75;100.00;98660.34;5001809;28;20052;-77
2023/03/14 01:05:35;;;;;;;12.68;3.50;;;;;;;13.83;100.00;98649.66;5003849;28;20050;-78
2023/03/14 01:08:03;;;;;;;11.48;2.60;;;;;;;13.12;100.00;98679.13;5004656;28;20132;-77
2023/03/14 01:10:30;;;;;;;8.32;1.70;;;;;;;12.93;100.00;98650.56;5004535;28;20057;-77
2023/03/14 01:12:56;;;;;;;6.38;2.00;;;;;;;12.64;100.00;98653.75;5004068;28;20054;-77
2023/03/14 01:15:23;;;;;;;5.13;0.93;;;;;;;12.71;100.00;98667.31;5004059;28;20527;-76
2023/03/14 01:17:49;;;;;;;4.60;1.38;;;;;;;12.68;100.00;98661.91;5001922;28;20049;-76
2023/03/14 01:20:16;;;;;;;9.05;1.25;;;;;;;12.50;100.00;98684.88;5003526;28;20053;-76
2023/03/14 01:22:44;;;;;;;1.17;1.05;;;;;;;12.58;100.00;98657.59;5002860;28;20148;-75
2023/03/14 01:25:13;;;;;;;4.95;2.25;;;;;;;12.52;100.00;98662.22;5001794;28;20076;-75
2023/03/14 01:27:40;;;;;;;7.15;1.42;;;;;;;12.41;100.00;98646.00;5003701;28;20073;-74
2023/03/14 01:30:08;;;;;;;4.85;1.10;;;;;;;12.42;100.00;98649.56;5002313;28;20193;-75
2023/03/14 01:32:34;;;;;;;5.28;1.10;;;;;;;12.43;100.00;98653.88;5002837;28;20042;-75
2023/03/14 01:35:01;;;;;;;4.80;1.05;;;;;;;12.62;100.00;98663.75;5003884;28;20061;-75
2023/03/14 01:37:27;;;;;;;3.00;1.17;;;;;;;12.52;100.00;98665.00;5004509;28;20053;-77
2023/03/14 01:39:54;;;;;;;7.75;1.25;;;;;;;12.25;100.00;98678.78;5004426;28;20057;-74
2023/03/14 01:42:20;;;;;;;5.22;1.10;;;;;;;12.50;100.00;98657.13;5003153;28;20050;-74
2023/03/14 01:44:48;;;;;;;9.18;1.10;;;;;;;12.44;100.00;98644.31;5003477;28;20064;-76
2023/03/14 01:47:14;;;;;;;0.73;0.60;;;;;;;12.36;100.00;98648.59;5003392;28;20077;-75
2023/03/14 01:49:42;;;;;;;6.85;1.38;;;;;;;12.17;100.00;98666.41;5004085;28;20057;-74
2023/03/14 01:52:16;;;;;;;1.10;0.90;;;;;;;12.17;100.00;98660.88;5002657;28;20508;-77
2023/03/14 01:54:47;;;;;;;6.85;1.02;;;;;;;12.36;100.00;98645.84;5000787;28;20081;-76
2023/03/14 01:57:19;;;;;;;5.72;1.35;;;;;;;12.35;100.00;98639.50;4994185;28;20055;-76
2023/03/14 02:00:00;;;;;;;0.20;0.20;;;;;;;12.29;100.00;98637.81;5019017;28;20062;-76
2023/03/14 02:02:27;;;;;;;7.00;1.23;;;;;;;12.32;100.00;98634.13;4997663;28;20045;-76
2023/03/14 02:04:56;;;;;;;6.07;1.45;;;;;;;12.47;100.00;98643.38;5018420;28;20049;-76
2023/03/14 02:07:33;;;;;;;7.80;1.92;;;;;;;12.35;100.00;98624.88;5003473;28;20696;-77
2023/03/14 02:10:02;;;;;;;1.20;0.90;;;;;;;12.43;100.00;98626.88;5003557;28;20439;-75
2023/03/14 02:12:29;;;;;;;2.05;0.82;;;;;;;12.52;100.00;98635.22;5003865;28;20050;-75
2023/03/14 02:14:55;;;;;;;4.15;1.38;;;;;;;12.38;100.00;98632.28;5001850;28;20057;-76
2023/03/14 02:17:23;;;;;;;10.52;1.77;;;;;;;12.55;100.00;98631.53;5004056;28;20046;-75
2023/03/14 02:19:57;;;;;;;3.38;1.05;;;;;;;12.33;100.00;98632.88;4999769;28;20058;-75
2023/03/14 02:22:24;;;;;;;1.75;0.60;;;;;;;12.47;100.00;98632.28;5003062;28;20053;-76
2023/03/14 02:25:11;;;;;;;5.03;1.40;;;;;;;12.49;100.00;98638.91;5003947;28;21468;-76
2023/03/14 02:27:39;;;;;;;5.32;1.05;;;;;;;12.67;100.00;98627.88;5003727;28;21059;-75
2023/03/14 02:30:23;;;;;;;11.07;1.77;;;;;;;12.35;100.00;98633.97;5003416;28;20042;-76
2023/03/14 02:32:57;;;;;;;11.20;1.77;;;;;;;12.40;100.00;98627.03;5003381;28;20054;-75
2023/03/14 02:35:46;;;;;;;1.48;1.02;;;;;;;12.42;100.00;98619.06;5002627;28;20053;-75
2023/03/14 02:38:19;;;;;;;2.40;0.63;;;;;;;12.35;100.00;98620.09;5004169;28;20403;-78
2023/03/14 02:40:46;;;;;;;5.38;1.45;;;;;;;12.74;100.00;98633.13;5005954;28;20049;-77
2023/03/14 02:43:13;;;;;;;9.63;1.27;;;;;;;12.52;100.00;98638.00;5005319;28;20057;-77
2023/03/14 02:45:39;;;;;;;1.90;0.90;;;;;;;12.44;100.00;98633.22;5003129;28;20053;-76
2023/03/14 02:48:13;;;;;;;2.83;0.77;;;;;;;12.36;100.00;98635.50;5005171;28;20050;-76
2023/03/14 02:50:39;;;;;;;1.33;0.50;;;;;;;12.44;100.00;98617.34;5004679;28;20049;-77
2023/03/14 02:53:06;;;;;;;2.80;1.00;;;;;;;12.54;100.00;98624.47;5006037;28;20129;-76
2023/03/14 02:55:33;;;;;;;11.15;1.73;;;;;;;12.32;100.00;98642.44;5005870;28;20057;-75
2023/03/14 02:57:59;;;;;;;11.40;2.00;;;;;;;12.39;100.00;98633.84;5009065;28;20532;-76
2023/03/14 03:00:26;;;;;;;4.53;1.40;;;;;;;12.39;100.00;98639.38;5007749;28;20049;-76
2023/03/14 03:02:53;;;;;;;7.30;1.65;;;;;;;12.67;100.00;98624.31;5009339;28;20068;-76
2023/03/14 03:05:20;;;;;;;5.90;1.70;;;;;;;12.46;100.00;98617.66;5009744;28;20220;-78
2023/03/14 03:07:46;;;;;;;13.02;2.63;;;;;;;12.59;100.00;98612.75;5008410;28;20057;-75
2023/03/14 03:10:13;;;;;;;6.22;1.00;;;;;;;12.38;100.00;98615.63;5009423;28;20053;-77
2023/03/14 03:12:39;;;;;;;10.50;2.28;;;;;;;12.40;100.00;98621.50;5008619;28;20064;-76
2023/03/14 03:15:06;;;;;;;18.10;6.18;;;;;;;12.72;100.00;98626.47;5009151;28;20053;-75
2023/03/14 03:17:33;;;;;;;5.38;1.20;;;;;;;12.56;100.00;98602.56;5008689;28;20046;-75
2023/03/14 03:19:59;;;;;;;9.60;1.75;;;;;;;12.61;100.00;98604.75;5007138;28;20060;-77
2023/03/14 03:22:26;;;;;;;3.35;0.85;;;;;;;12.48;100.00;98597.78;5007510;28;20136;-75
2023/03/14 03:24:52;;;;;;;8.43;1.85;;;;;;;12.25;100.00;98584.50;5009683;28;20050;-76
2023/03/14 03:27:18;;;;;;;7.85;1.38;;;;;;;12.31;100.00;98583.44;5008494;28;20060;-77
2023/03/14 03:29:45;;;;;;;12.30;2.47;;;;;;;12.08;100.00;98583.25;5008170;28;20526;-74
2023/03/14 03:32:12;;;;;;;5.75;1.30;;;;;;;12.32;100.00;98600.84;5010175;28;20050;-76
2023/03/14 03:34:38;;;;;;;12.02;1.85;;;;;;;12.34;100.00;98595.59;5012475;28;20389;-74
2023/03/14 03:37:04;;;;;;;6.97;1.88;;;;;;;12.40;100.00;98597.31;5008646;28;20046;-75
2023/03/14 03:39:31;;;;;;;3.30;0.57;;;;;;;12.50;100.00;98598.88;5008435;28;20046;-79
2023/03/14 03:41:57;;;;;;;8.40;1.60;;;;;;;12.79;100.00;98581.75;5008694;28;20052;-76
2023/03/14 03:44:24;;;;;;;7.38;1.73;;;;;;;12.74;100.00;98601.81;5008295;28;20457;-78
2023/03/14 03:46:50;;;;;;;15.50;2.67;;;;;;;12.67;100.00;98600.13;5008588;28;20057;-75
2023/03/14 03:49:17;;;;;;;6.85;1.60;;;;;;;12.90;100.00;98582.84;5006218;28;20083;-77
2023/03/14 03:51:43;;;;;;;2.97;0.77;;;;;;;12.80;100.00;98575.75;5008645;28;20049;-77
2023/03/14 03:54:10;;;;;;;5.55;1.55;;;;;;;12.99;100.00;98576.53;5006079;28;20053;-76
2023/03/14 03:56:36;;;;;;;8.43;2.00;;;;;;;13.03;100.00;98580.69;5007746;28;20052;-75
2023/03/14 03:59:03;;;;;;;2.20;0.95;;;;;;;12.83;100.00;98583.16;5007594;28;20053;-76
2023/03/14 04:01:29;;;;;;;8.68;1.75;;;;;;;12.56;100.00;98593.50;5010143;28;20050;-76
2023/03/14 04:03:56;;;;;;;4.95;1.77;;;;;;;12.53;100.00;98594.41;5013048;28;20045;-75
2023/03/14 04:06:23;;;;;;;12.93;1.65;;;;;;;12.59;100.00;98576.69;5008390;28;20050;-77
2023/03/14 04:08:49;;;;;;;5.00;1.42;;;;;;;12.58;100.00;98594.56;5008295;28;20156;-73
2023/03/14 04:11:16;;;;;;;9.52;1.25;;;;;;;12.49;100.00;98586.22;5010274;28;20050;-77
2023/03/14 04:13:43;;;;;;;6.40;1.58;;;;;;;12.34;100.00;98598.38;5007356;28;20050;-77
2023/03/14 04:16:17;;;;;;;7.80;1.60;;;;;;;12.45;100.00;98595.91;5008450;28;20061;-77
2023/03/14 04:18:44;;;;;;;6.13;1.80;;;;;;;12.44;100.00;98589.63;5006480;28;20058;-77
2023/03/14 04:21:10;;;;;;;5.35;1.27;;;;;;;12.48;100.00;98589.47;5007583;28;20456;-73
2023/03/14 04:23:37;;;;;;;4.53;1.48;;;;;;;12.68;100.00;98595.31;5008285;28;20045;-76
2023/03/14 04:26:03;;;;;;;10.60;2.05;;;;;;;12.72;100.00;98591.19;5007620;28;20515;-76
2023/03/14 04:28:30;;;;;;;2.25;0.80;;;;;;;12.97;100.00;98582.53;5007660;28;20049;-76
2023/03/14 04:30:57;;;;;;;7.38;2.05;;;;;;;12.62;100.00;98578.53;5007859;28;20050;-75
2023/03/14 04:33:23;;;;;;;6.22;1.55;;;;;;;12.97;100.00;98579.00;5007533;28;20412;-75
2023/03/14 04:35:54;;;;;;;5.63;0.85;;;;;;;12.76;100.00;98574.38;5009704;28;20066;-74
2023/03/14 04:38:20;;;;;;;2.95;1.10;;;;;;;12.52;100.00;98567.91;5005371;28;20108;-77
2023/03/14 04:40:47;;;;;;;6.25;1.77;;;;;;;12.66;100.00;98573.59;5007242;28;20136;-78
2023/03/14 04:43:13;;;;;;;3.75;1.20;;;;;;;12.37;100.00;98580.81;5007911;28;20045;-77
2023/03/14 04:45:43;;;;;;;4.40;0.88;;;;;;;12.27;100.00;98560.63;5008307;28;20057;-77
2023/03/14 04:48:10;;;;;;;5.63;2.00;;;;;;;12.46;100.00;98569.75;5007539;28;20514;-76
2023/03/14 04:50:36;;;;;;;5.95;1.15;;;;;;;12.15;100.00;98553.22;5008110;28;20393;-77
2023/03/14 04:53:03;;;;;;;2.67;0.90;;;;;;;12.20;100.00;98547.06;5022060;28;20056;-77
2023/03/14 04:55:32;;;;;;;2.03;0.60;;;;;;;11.85;100.00;98539.44;5008962;28;20053;-77
2023/03/14 04:57:59;;;;;;;4.28;0.98;;;;;;;12.47;100.00;98557.41;5007098;28;20065;-76
2023/03/14 05:00:25;;;;;;;0.50;0.35;;;;;;;12.95;100.00;98553.69;5007682;28;20059;-76
2023/03/14 05:02:52;;;;;;;7.32;0.55;;;;;;;11.70;100.00;98552.31;5006922;28;20064;-76
2023/03/14 05:05:19;;;;;;;2.33;0.77;;;;;;;11.46;100.00;98563.13;5007213;28;20073;-74
2023/03/14 05:07:46;;;;;;;1.55;0.77;;;;;;;11.57;100.00;98559.91;5006639;28;20054;-76
2023/03/14 05:10:12;;;;;;;2.75;0.60;;;;;;;11.35;100.00;98553.69;5006268;28;20053;-75
2023/03/14 05:12:39;;;;;;;6.45;1.00;;;;;;;11.16;100.00;98554.78;5006963;28;20056;-75
2023/03/14 05:15:06;;;;;;;1.65;0.60;;;;;;;11.22;100.00;98553.00;5007217;28;20061;-76
2023/03/14 05:17:33;;;;;;;2.80;0.70;;;;;;;11.24;100.00;98543.00;5007382;28;20046;-76
2023/03/14 05:20:00;;;;;;;0.50;0.50;;;;;;;11.13;100.00;98537.09;5007504;28;20534;-75
2023/03/14 05:22:26;;;;;;;4.68;1.05;;;;;;;11.19;100.00;98538.06;5007122;28;20073;-77
2023/03/14 05:24:58;;;;;;;1.45;0.77;;;;;;;11.13;100.00;98541.88;5006912;28;20053;-76
2023/03/14 05:27:25;;;;;;;6.50;1.15;;;;;;;11.41;100.00;98547.09;5006105;28;20507;-75
2023/03/14 05:29:51;;;;;;;0.30;0.30;;;;;;;11.20;100.00;98547.16;5007269;28;20140;-72
2023/03/14 05:32:18;;;;;;;2.58;0.88;;;;;;;11.33;100.00;98539.50;5005682;28;20088;-75
2023/03/14 05:34:44;;;;;;;3.42;1.50;;;;;;;11.18;100.00;98533.78;5011248;28;20053;-76
2023/03/14 05:37:11;;;;;;;2.90;0.90;;;;;;;11.19;100.00;98531.75;5007703;28;20947;-76
2023/03/14 05:39:37;;;;;;;2.75;0.60;;;;;;;11.22;100.00;98533.63;5006511;28;20069;-76
2023/03/14 05:42:04;;;;;;;3.50;0.98;;;;;;;11.24;100.00;98515.31;5006952;28;20072;-76
2023/03/14 05:44:30;;;;;;;0.35;0.35;;;;;;;11.18;100.00;98528.22;5010186;28;20075;-76
2023/03/14 05:46:57;;;;;;;2.38;0.65;;;;;;;11.26;100.00;98521.19;5021509;28;20544;-76
2023/03/14 05:49:23;;;;;;;5.95;1.10;;;;;;;11.31;100.00;98508.75;5006489;28;20072;-76
2023/03/14 05:51:51;;;;;;;2.30;1.00;;;;;;;11.23;100.00;98513.78;5003788;28;20424;-76
2023/03/14 05:54:18;;;;;;;2.55;0.88;;;;;;;11.14;100.00;98513.72;5007001;28;20368;-75
2023/03/14 05:56:44;;;;;;;5.97;1.65;;;;;;;11.21;100.00;98507.16;5008321;28;20053;-76
2023/03/14 05:59:11;;;;;;;3.28;1.63;;;;;;;11.20;100.00;98516.72;5004838;28;20053;-75
2023/03/14 06:01:37;;;;;;;1.65;0.70;;;;;;;11.16;100.00;98524.34;5006866;28;20693;-76
2023/03/14 06:04:04;;;;;;;9.13;2.13;;;;;;;11.27;100.00;98517.19;5006543;28;20046;-75
2023/03/14 06:06:30;;;;;;;6.72;1.90;;;;;;;11.29;100.00;98519.50;5008998;28;20061;-75
2023/03/14 06:08:57;;;;;;;6.20;2.47;;;;;;;11.32;100.00;98513.06;5007441;28;20054;-76
2023/03/14 06:11:23;;;;;;;1.67;1.13;;;;;;;11.13;100.00;98522.50;5006594;28;20068;-76
2023/03/14 06:13:50;;;;;;;3.88;1.02;;;;;;;11.18;100.00;98519.16;5007410;28;20042;-76
2023/03/14 06:16:17;;;;;;;7.22;2.65;;;;;;;11.27;100.00;98522.72;5010548;28;20139;-75
2023/03/14 06:18:46;;;;;;;9.02;2.45;;;;;;;11.57;100.00;98521.16;5010389;28;20057;-75
2023/03/14 06:21:12;;;;;;;3.45;0.65;;;;;;;11.43;100.00;98507.88;5011363;28;20053;-75
2023/03/14 06:23:39;;;;;;;7.13;2.15;;;;;;;11.57;100.00;98512.84;5005116;28;20068;-76
2023/03/14 06:26:05;;;;;;;11.05;1.98;;;;;;;11.60;100.00;98523.78;5009916;28;20704;-75
2023/03/14 06:28:32;;;;;;;6.32;2.05;;;;;;;12.05;100.00;98521.16;5010135;28;20050;-77
2023/03/14 06:30:59;;;;;;;3.67;1.58;;;;;;;11.38;100.00;98530.63;5010222;28;20060;-75
2023/03/14 06:33:26;;;;;;;9.85;2.88;;;;;;;11.70;100.00;98524.63;5008090;28;20100;-73
2023/03/14 06:35:52;;;;;;;9.77;3.28;;;;;;;11.76;100.00;98522.78;5011102;28;20145;-76
2023/03/14 06:38:19;;;;;;;11.05;2.85;;;;;;;11.70;100.00;98519.84;5009157;28;20045;-75
2023/03/14 06:40:45;;;;;;;9.15;3.40;;;;;;;11.78;100.00;98517.56;5010142;28;20058;-75
2023/03/14 06:43:12;;;;;;;8.65;3.10;;;;;;;11.74;100.00;98514.94;5010456;28;20080;-75
2023/03/14 06:45:39;;;;;;;5.13;2.33;;;;;;;11.77;100.00;98527.88;5009620;28;20050;-76
2023/03/14 06:48:05;;;;;;;6.03;2.13;;;;;;;11.79;100.00;98525.44;5008818;28;20093;-75
2023/03/14 06:50:32;;;;;;;8.80;3.00;;;;;;;11.86;100.00;98536.22;5009994;28;20053;-76
2023/03/14 06:52:58;;;;;;;13.85;3.15;;;;;;;11.83;100.00;98530.81;5009737;28;20050;-75
2023/03/14 06:55:25;;;;;;;4.78;2.22;;;;;;;11.82;100.00;98535.59;5013322;28;20126;-76
2023/03/14 06:57:52;;;;;;;7.88;3.28;;;;;;;12.02;100.00;98530.38;5010168;28;20163;-75
2023/03/14 07:00:19;;;;;;;7.97;3.15;;;;;;;12.04;100.00;98529.94;5008585;28;20056;-74
2023/03/14 07:02:45;;;;;;;4.40;1.13;;;;;;;12.01;100.00;98534.41;5009882;28;20053;-75
2023/03/14 07:05:12;;;;;;;5.32;2.90;;;;;;;11.91;100.00;98527.28;5010562;28;20052;-76
2023/03/14 07:07:38;;;;;;;5.53;1.92;;;;;;;11.91;100.00;98529.31;5008159;28;20049;-75
2023/03/14 07:10:07;;;;;;;2.85;1.92;;;;;;;12.46;100.00;98526.13;5009329;28;20054;-76
2023/03/14 07:12:33;;;;;;;10.90;2.20;;;;;;;12.17;100.00;98530.56;5007543;28;20058;-77
2023/03/14 07:14:59;;;;;;;6.28;1.80;;;;;;;11.69;100.00;98525.84;5007071;28;20057;-75
2023/03/14 07:17:42;;;;;;;4.00;1.45;;;;;;;11.93;100.00;98535.94;5010070;28;20049;-75
2023/03/14 07:20:09;;;;;;;1.00;0.90;;;;;;;11.99;100.00;98530.56;5009833;28;20054;-78
2023/03/14 07:22:36;;;;;;;6.05;1.80;;;;;;;11.99;100.00;98538.88;5008031;28;20129;-75
2023/03/14 07:25:03;;;;;;;5.15;1.42;;;;;;;11.91;100.00;98534.84;5008054;28;20048;-76
2023/03/14 07:27:29;;;;;;;3.88;1.27;;;;;;;12.00;100.00;98532.09;5009710;28;20081;-75
2023/03/14 07:29:56;;;;;;;2.47;1.17;;;;;;;11.92;100.00;98541.94;5009551;28;20393;-75
2023/03/14 07:32:22;;;;;;;6.13;1.45;;;;;;;12.00;100.00;98527.31;5009137;28;20069;-76
2023/03/14 07:34:49;;;;;;;4.63;0.90;;;;;;;12.11;100.00;98537.94;5009049;28;20042;-75
2023/03/14 07:37:15;;;;;;;2.33;1.13;;;;;;;11.99;100.00;98536.09;5006232;28;20045;-74
2023/03/14 07:39:42;;;;;;;1.77;1.38;;;;;;;11.92;100.00;98539.91;5009405;28;20135;-75
2023/03/14 07:42:09;;;;;;;2.05;0.98;;;;;;;12.27;100.00;98540.44;5008836;28;20072;-76
2023/03/14 07:44:35;;;;;;;2.75;1.13;;;;;;;12.27;100.00;98537.69;5008083;28;20049;-74
2023/03/14 07:47:02;;;;;;;0.90;0.70;;;;;;;12.20;100.00;98543.53;5008455;28;20050;-74
2023/03/14 07:49:28;;;;;;;2.20;1.05;;;;;;;12.16;100.00;98549.22;5008631;28;20053;-72
2023/03/14 07:51:55;;;;;;;2.63;1.05;;;;;;;12.23;100.00;98551.69;5008042;28;20404;-73
2023/03/14 07:54:21;;;;;;;2.75;1.35;;;;;;;12.25;100.00;98545.69;5006476;28;20069;-73
2023/03/14 07:56:48;;;;;;;6.00;2.08;;;;;;;12.15;100.00;98549.69;5008931;28;20084;-73
2023/03/14 07:59:14;;;;;;;9.57;1.38;;;;;;;12.22;100.00;98546.63;5008070;28;20565;-72
2023/03/14 08:01:41;;;;;;;5.20;1.92;;;;;;;12.21;100.00;98545.06;5006717;28;20073;-72
2023/03/14 08:04:07;;;;;;;2.33;1.10;;;;;;;12.27;100.00;98549.53;5006609;28;20054;-70
2023/03/14 08:06:36;;;;;;;1.85;1.02;;;;;;;12.35;100.00;98550.00;5010093;28;20050;-70
2023/03/14 08:09:03;;;;;;;4.65;2.13;;;;;;;12.14;100.00;98556.44;5007531;28;20615;-71
2023/03/14 08:11:30;;;;;;;3.65;1.58;;;;;;;12.23;100.00;98548.16;5007621;28;20057;-71
2023/03/14 08:13:57;;;;;;;8.88;1.88;;;;;;;12.10;100.00;98550.28;5007597;28;20057;-72
2023/03/14 08:16:23;;;;;;;4.28;1.98;;;;;;;12.41;100.00;98548.16;5022035;28;20459;-71
2023/03/14 08:18:50;;;;;;;4.60;2.05;;;;;;;12.50;100.00;98556.50;5007887;28;20471;-72
2023/03/14 08:21:16;;;;;;;4.40;2.03;;;;;;;12.35;100.00;98556.31;5005892;28;20467;-71
2023/03/14 08:23:43;;;;;;;3.70;0.98;;;;;;;12.34;100.00;98543.69;5007071;28;20061;-72
2023/03/14 08:26:09;;;;;;;6.45;2.45;;;;;;;12.44;100.00;98547.25;5003502;28;20049;-71
2023/03/14 08:28:36;;;;;;;3.53;1.67;;;;;;;12.42;100.00;98569.13;5007894;28;20073;-72
2023/03/14 08:31:03;;;;;;;9.57;3.95;;;;;;;12.37;100.00;98559.41;5006431;28;20073;-71
2023/03/14 08:33:30;;;;;;;8.10;3.80;;;;;;;12.36;100.00;98563.41;5008277;28;20066;-70
2023/03/14 08:35:59;;;;;;;5.78;2.45;;;;;;;12.44;100.00;98552.78;5009395;28;20092;-73
2023/03/14 08:38:26;;;;;;;7.05;3.35;;;;;;;12.60;100.00;98563.59;5000510;28;20049;-73
2023/03/14 08:41:00;;;;;;;6.35;2.75;;;;;;;12.61;100.00;98567.91;5008344;28;20523;-73
2023/03/14 08:43:27;;;;;;;7.35;3.33;;;;;;;12.69;100.00;98566.38;5001034;28;20526;-73
2023/03/14 08:45:57;;;;;;;7.38;3.83;;;;;;;12.67;100.00;98568.84;5008089;28;20050;-69
2023/03/14 08:48:24;;;;;;;11.38;3.97;;;;;;;12.62;100.00;98561.09;5007628;28;20045;-71
2023/03/14 08:50:50;;;;;;;6.97;2.65;;;;;;;12.62;100.00;98564.66;5007351;28;20057;-73
2023/03/14 08:53:17;;;;;;;6.45;2.72;;;;;;;12.63;100.00;98566.19;5022789;28;20570;-72
2023/03/14 08:55:44;;;;;;;7.70;3.35;;;;;;;12.60;100.00;98572.69;5006346;28;20050;-72
2023/03/14 08:58:10;;;;;;;5.57;2.15;;;;;;;12.66;100.00;98572.84;5008011;28;20851;-71
2023/03/14 09:00:37;;;;;;;7.13;3.63;;;;;;;12.68;100.00;98576.69;5010920;28;20579;-73
2023/03/14 09:03:04;;;;;;;5.30;2.63;;;;;;;12.79;100.00;98573.44;5006778;28;20434;-75
2023/03/14 09:05:34;;;;;;;4.13;2.05;;;;;;;12.92;100.00;98576.81;5007987;28;20042;-72
2023/03/14 09:08:00;;;;;;;1.33;1.23;;;;;;;12.94;100.00;98575.16;5005604;28;20061;-74
2023/03/14 09:10:27;;;;;;;10.13;4.22;;;;;;;12.78;100.00;98583.78;5006897;28;20050;-74
2023/03/14 09:12:54;;;;;;;14.20;6.57;;;;;;;12.76;100.00;98600.09;5006780;28;20062;-72
2023/03/14 09:15:20;;;;;;;6.88;2.85;;;;;;;12.52;100.00;98585.31;5008696;28;20050;-72
2023/03/14 09:17:47;;;;;;;12.23;4.82;;;;;;;12.49;100.00;98596.56;5006889;28;20058;-71
2023/03/14 09:20:14;;;;;;;18.02;8.23;;;;;;;12.73;100.00;98597.50;5005267;28;20050;-71
2023/03/14 09:22:40;;;;;;;19.95;8.63;;;;;;;12.75;100.00;98601.34;5007206;28;20077;-70
2023/03/14 09:25:08;;;;;;;17.90;7.90;;;;;;;12.68;100.00;98607.22;5006455;28;20666;-71
2023/03/14 09:27:34;;;;;;;15.90;8.02;;;;;;;12.76;100.00;98627.84;5006166;28;20092;-71
2023/03/14 09:30:01;;;;;;;20.70;7.65;;;;;;;12.72;100.00;98668.09;5005990;28;20399;-70
2023/03/14 09:32:27;;;;;;;8.60;4.15;;;;;;;12.68;100.00;98687.66;5006011;28;20058;-72
2023/03/14 09:34:54;;;;;;;8.82;3.35;;;;;;;12.41;100.00;98700.69;5007416;28;20120;-71
2023/03/14 09:37:20;;;;;;;3.10;1.30;;;;;;;12.17;100.00;98714.31;5006777;28;20060;-73
2023/03/14 09:39:47;;;;;;;4.20;1.13;;;;;;;11.90;100.00;98722.50;5000726;28;20045;-71
2023/03/14 09:42:18;;;;;;;2.75;1.05;;;;;;;11.86;100.00;98734.94;5006294;28;20049;-73
2023/03/14 09:45:00;;;;;;;0.65;0.65;;;;;;;11.73;100.00;98739.78;5009888;28;20129;-72
2023/03/14 09:47:28;;;;;;;4.43;2.10;;;;;;;11.83;100.00;98739.38;5003864;28;20057;-72
2023/03/14 09:49:54;;;;;;;3.45;1.92;;;;;;;11.86;100.00;98757.09;5008679;28;20494;-73
2023/03/14 09:52:26;;;;;;;1.42;1.02;;;;;;;11.64;100.00;98768.19;5025332;28;20571;-71
2023/03/14 09:55:03;;;;;;;4.63;1.80;;;;;;;11.64;100.00;98761.91;5009261;28;20046;-72
2023/03/14 09:57:33;;;;;;;4.10;1.13;;;;;;;11.69;100.00;98780.69;5007813;28;20056;-72
2023/03/14 10:00:14;;;;;;;6.25;3.08;;;;;;;11.70;100.00;98790.53;5007361;28;20492;-72
2023/03/14 10:02:45;;;;;;;5.50;2.90;;;;;;;11.59;100.00;98812.28;5008392;28;20052;-73
2023/03/14 10:05:18;;;;;;;2.78;1.60;;;;;;;11.52;100.00;98815.31;5006170;28;20084;-73
2023/03/14 10:07:45;;;;;;;9.82;1.98;;;;;;;11.63;100.00;98824.03;5012904;28;20120;-71
2023/03/14 10:10:24;;;;;;;2.60;1.65;;;;;;;12.26;100.00;98841.13;5010170;28;20128;-73
2023/03/14 10:13:08;;;;;;;5.90;1.65;;;;;;;11.82;100.00;98864.53;5009085;28;20512;-72
2023/03/14 10:15:36;;;;;;;1.70;1.05;;;;;;;11.28;100.00;98875.06;5009139;28;20049;-74
2023/03/14 10:18:12;;;;;;;1.95;1.05;;;;;;;12.66;100.00;98883.56;5007165;28;20053;-72
2023/03/14 10:20:43;;;;;;;0.95;0.75;;;;;;;11.60;100.00;98899.69;5010507;28;20053;-72
2023/03/14 10:23:13;;;;;;;1.38;1.00;;;;;;;11.22;100.00;98908.06;5011338;28;20092;-73
2023/03/14 10:25:42;;;;;;;6.22;1.48;;;;;;;10.97;100.00;98907.31;5011631;28;20045;-72
2023/03/14 10:28:27;;;;;;;0.90;0.65;;;;;;;10.93;100.00;98932.31;5007402;28;20052;-72
2023/03/14 10:30:55;;;;;;;0.55;0.52;;;;;;;10.82;100.00;98928.31;5024024;28;20133;-74
2023/03/14 10:33:24;;;;;;;2.15;0.70;;;;;;;10.61;100.00;98951.09;5010339;28;20046;-72
2023/03/14 10:36:00;;;;;;;5.35;1.65;;;;;;;10.78;100.00;98947.03;5007837;28;20049;-72
2023/03/14 10:38:29;;;;;;;2.65;0.88;;;;;;;10.94;100.00;98966.31;5003562;28;20057;-72
2023/03/14 10:40:58;;;;;;;2.53;1.23;;;;;;;10.84;100.00;98989.53;5010250;28;20133;-73
2023/03/14 10:43:33;;;;;;;3.15;1.17;;;;;;;10.87;100.00;99005.25;5012285;28;20050;-73
2023/03/14 10:46:06;;;;;;;1.30;0.80;;;;;;;10.73;100.00;99011.94;5010006;28;20048;-72
2023/03/14 10:48:36;;;;;;;2.33;1.35;;;;;;;10.69;100.00;99030.66;5003481;28;20057;-72
2023/03/14 10:51:06;;;;;;;3.13;1.25;;;;;;;10.56;100.00;99040.13;5010804;28;20591;-73
2023/03/14 10:53:38;;;;;;;1.45;0.93;;;;;;;10.62;100.00;99060.47;5009115;28;20057;-73
2023/03/14 10:56:05;;;;;;;1.67;0.75;;;;;;;10.41;100.00;99072.91;5007665;28;20169;-74
2023/03/14 10:58:42;;;;;;;4.45;1.00;;;;;;;10.25;100.00;99100.56;5010276;28;20041;-72
2023/03/14 11:01:37;;;;;;;2.72;0.80;;;;;;;10.23;100.00;99114.81;5008331;28;20427;-75
2023/03/14 11:04:22;;;;;;;1.35;0.70;;;;;;;10.36;100.00;99129.50;5016412;28;20087;-72
2023/03/14 11:07:09;;;;;;;0.47;0.43;;;;;;;11.65;100.00;99156.78;5011302;28;20048;-73
2023/03/14 11:09:41;;;;;;;3.20;1.00;;;;;;;12.18;100.00;99151.13;5004339;28;20050;-72
2023/03/14 11:12:25;;;;;;;2.17;1.15;;;;;;;10.42;100.00;99166.47;5009241;28;20068;-73
2023/03/14 11:15:14;;;;;;;3.63;1.13;;;;;;;10.44;100.00;99177.88;5008362;28;20058;-72
2023/03/14 11:18:09;;;;;;;5.75;0.85;;;;;;;11.42;100.00;99193.81;5003326;28;20076;-71
2023/03/14 11:20:46;;;;;;;2.80;1.73;;;;;;;11.43;100.00;99203.69;5008929;28;20050;-73
2023/03/14 11:23:27;;;;;;;3.42;1.20;;;;;;;12.84;100.00;99219.47;5008387;28;20057;-71
2023/03/14 11:25:58;;;;;;;0.88;0.60;;;;;;;13.07;100.00;99241.31;5008888;28;20052;-72
2023/03/14 11:28:40;;;;;;;4.40;1.25;;;;;;;13.41;100.00;99248.84;5005915;28;20518;-73
2023/03/14 11:31:12;;;;;;;4.07;1.52;;;;;;;13.37;100.00;99262.09;5005814;28;20058;-72